Time;durP1;ratioP1;P1;durP2;ratioP2;P2;SDS_P1;SDS_P2;PMS_P1;PMS_P2;Temp;Humidity;BMP_temperature;BMP_pressure;BME280_temperature;BME280_humidity;BME280_pressure;Samples;Min_cycle;Max_cycle;Signal;HPM_P1;HPM_P2
2023/05/24 00:00:23;;;;;;;16.20;5.50;;;;;;;;;;6240541;28;20296;-77
2023/05/24 00:03:33;;;;;;;26.27;6.13;;;;;;;;;;6218686;28;20313;-76
2023/05/24 00:06:39;;;;;;;10.43;5.95;;;;;;;;;;6218674;28;20292;-77
2023/05/24 00:09:44;;;;;;;17.38;6.00;;;;;;;;;;6221335;28;20483;-76
2023/05/24 00:12:49;;;;;;;10.88;6.18;;;;;;;;;;6242218;28;20392;-77
2023/05/24 00:15:54;;;;;;;14.70;6.43;;;;;;;;;;6243052;28;20620;-76
2023/05/24 00:19:01;;;;;;;10.38;5.60;;;;;;;;;;6242771;28;20308;-76
2023/05/24 00:22:06;;;;;;;30.15;5.93;;;;;;;;;;6243469;28;20300;-76
2023/05/24 00:25:11;;;;;;;24.20;6.93;;;;;;;;;;6242788;28;20401;-77
2023/05/24 00:28:16;;;;;;;7.60;5.55;;;;;;;;;;6242628;28;20296;-77
2023/05/24 00:31:22;;;;;;;7.68;5.25;;;;;;;;;;6242968;28;20288;-76
2023/05/24 00:34:29;;;;;;;6.07;5.50;;;;;;;;;;6241553;28;20296;-75
2023/05/24 00:37:34;;;;;;;10.15;5.93;;;;;;;;;;6242294;28;20272;-77
2023/05/24 00:40:39;;;;;;;7.35;5.30;;;;;;;;;;6242465;28;20284;-77
2023/05/24 00:43:44;;;;;;;8.95;5.10;;;;;;;;;;6241605;28;20482;-77
2023/05/24 00:46:50;;;;;;;14.48;5.70;;;;;;;;;;6242346;28;20296;-77
2023/05/24 00:49:57;;;;;;;13.45;5.38;;;;;;;;;;6237898;28;20295;-78
2023/05/24 00:53:03;;;;;;;8.20;5.25;;;;;;;;;;6237377;28;20315;-76
2023/05/24 00:56:13;;;;;;;6.97;5.35;;;;;;;;;;6238007;28;20316;-77
2023/05/24 00:59:18;;;;;;;6.25;5.57;;;;;;;;;;6238812;28;20581;-76
2023/05/24 01:02:24;;;;;;;6.00;5.35;;;;;;;;;;6220029;28;20597;-76
2023/05/24 01:05:31;;;;;;;5.80;5.35;;;;;;;;;;6246642;23;20295;-77
2023/05/24 01:08:48;;;;;;;5.35;4.85;;;;;;;;;;6237009;28;20292;-77
2023/05/24 01:12:02;;;;;;;6.30;5.60;;;;;;;;;;6235789;28;20550;-76
2023/05/24 01:15:11;;;;;;;9.25;6.20;;;;;;;;;;6237226;28;20301;-76
2023/05/24 01:18:20;;;;;;;6.10;5.50;;;;;;;;;;6235630;28;20302;-76
2023/05/24 01:21:38;;;;;;;7.30;5.63;;;;;;;;;;6237028;28;20288;-76
2023/05/24 01:24:56;;;;;;;5.38;5.13;;;;;;;;;;6259238;28;20301;-76
2023/05/24 01:28:03;;;;;;;5.45;5.00;;;;;;;;;;6268220;28;20292;-77
2023/05/24 01:31:09;;;;;;;5.80;5.40;;;;;;;;;;6236140;28;20480;-76
2023/05/24 01:34:14;;;;;;;6.90;5.68;;;;;;;;;;6236593;28;20296;-77
2023/05/24 01:37:19;;;;;;;6.07;5.65;;;;;;;;;;6236639;28;20579;-76
2023/05/24 01:40:25;;;;;;;12.10;5.57;;;;;;;;;;6236335;28;20276;-76
2023/05/24 01:43:35;;;;;;;6.97;5.20;;;;;;;;;;6236304;28;20300;-76
2023/05/24 01:46:41;;;;;;;26.27;7.07;;;;;;;;;;6235445;28;20272;-75
2023/05/24 01:49:53;;;;;;;38.05;8.00;;;;;;;;;;6234990;28;20411;-76
2023/05/24 01:53:05;;;;;;;19.42;6.50;;;;;;;;;;6238116;28;20483;-75
2023/05/24 01:56:12;;;;;;;5.82;5.32;;;;;;;;;;6238306;28;20296;-75
2023/05/24 01:59:19;;;;;;;7.35;5.95;;;;;;;;;;6237789;28;20296;-76
2023/05/24 02:02:24;;;;;;;6.13;5.53;;;;;;;;;;6237661;28;20301;-77
2023/05/24 02:05:29;;;;;;;11.23;6.13;;;;;;;;;;6237489;28;20553;-77
2023/05/24 02:08:35;;;;;;;35.75;7.57;;;;;;;;;;6234662;28;20300;-78
2023/05/24 02:11:40;;;;;;;43.75;9.18;;;;;;;;;;6235547;28;20308;-76
2023/05/24 02:14:49;;;;;;;15.38;7.38;;;;;;;;;;6235385;28;20453;-76
2023/05/24 02:17:55;;;;;;;20.33;6.18;;;;;;;;;;6234017;28;20301;-76
2023/05/24 02:21:00;;;;;;;41.28;8.20;;;;;;;;;;6234698;28;20292;-77
2023/05/24 02:24:06;;;;;;;39.40;7.65;;;;;;;;;;6235275;28;20342;-77
2023/05/24 02:27:12;;;;;;;13.80;6.55;;;;;;;;;;6235219;28;20304;-77
2023/05/24 02:30:19;;;;;;;6.60;5.93;;;;;;;;;;6234271;28;20428;-75
2023/05/24 02:33:25;;;;;;;6.93;6.22;;;;;;;;;;6233932;28;20457;-76
2023/05/24 02:36:33;;;;;;;7.25;5.53;;;;;;;;;;6234575;28;20605;-77
2023/05/24 02:39:38;;;;;;;7.53;6.05;;;;;;;;;;6234702;28;20289;-76
2023/05/24 02:42:43;;;;;;;12.65;6.07;;;;;;;;;;6266727;28;20296;-76
2023/05/24 02:45:50;;;;;;;21.20;6.80;;;;;;;;;;6234555;28;20299;-75
2023/05/24 02:48:55;;;;;;;32.75;6.97;;;;;;;;;;6234085;28;20372;-75
2023/05/24 02:52:00;;;;;;;15.18;6.00;;;;;;;;;;6235807;28;20323;-76
2023/05/24 02:55:07;;;;;;;8.75;5.80;;;;;;;;;;6234198;28;20303;-75
2023/05/24 02:58:13;;;;;;;14.95;5.63;;;;;;;;;;6233777;28;20296;-76
2023/05/24 03:01:20;;;;;;;26.50;7.30;;;;;;;;;;6234439;28;20296;-76
2023/05/24 03:04:27;;;;;;;6.05;5.55;;;;;;;;;;6229810;28;20577;-76
2023/05/24 03:07:32;;;;;;;7.93;6.43;;;;;;;;;;6232797;28;20264;-77
2023/05/24 03:10:37;;;;;;;7.13;5.68;;;;;;;;;;6232246;28;20284;-77
2023/05/24 03:13:44;;;;;;;8.38;6.10;;;;;;;;;;6232084;28;20308;-76
2023/05/24 03:16:51;;;;;;;8.77;5.95;;;;;;;;;;6234776;28;20592;-75
2023/05/24 03:19:56;;;;;;;6.50;5.85;;;;;;;;;;6235582;28;20565;-76
2023/05/24 03:23:01;;;;;;;8.02;6.38;;;;;;;;;;6230298;28;20297;-76
2023/05/24 03:26:07;;;;;;;7.28;5.82;;;;;;;;;;6234286;28;20297;-76
2023/05/24 03:29:12;;;;;;;7.57;6.00;;;;;;;;;;6229151;28;20292;-75
2023/05/24 03:32:21;;;;;;;7.25;5.57;;;;;;;;;;6233861;28;20300;-77
2023/05/24 03:35:26;;;;;;;10.80;6.15;;;;;;;;;;6221070;28;20312;-77
2023/05/24 03:38:33;;;;;;;13.45;6.40;;;;;;;;;;6233752;28;20603;-76
2023/05/24 03:41:38;;;;;;;8.18;6.13;;;;;;;;;;6233571;28;20619;-77
2023/05/24 03:44:43;;;;;;;8.73;6.90;;;;;;;;;;6233541;28;20292;-76
2023/05/24 03:47:50;;;;;;;13.60;6.43;;;;;;;;;;6233704;28;20288;-77
2023/05/24 03:50:55;;;;;;;6.78;6.20;;;;;;;;;;6235432;28;20470;-77
2023/05/24 03:54:01;;;;;;;8.57;6.28;;;;;;;;;;6234225;28;20380;-75
2023/05/24 03:57:06;;;;;;;7.47;6.50;;;;;;;;;;6233602;28;20301;-76
2023/05/24 04:00:14;;;;;;;10.48;6.50;;;;;;;;;;6233234;28;20304;-76
2023/05/24 04:03:25;;;;;;;7.38;6.72;;;;;;;;;;6233116;28;20403;-76
2023/05/24 04:06:32;;;;;;;7.20;6.40;;;;;;;;;;6234056;28;20605;-76
2023/05/24 04:09:37;;;;;;;8.43;6.53;;;;;;;;;;6234413;28;20479;-76
2023/05/24 04:12:42;;;;;;;6.75;6.10;;;;;;;;;;6233381;28;20312;-77
2023/05/24 04:15:47;;;;;;;14.60;6.55;;;;;;;;;;6233179;28;20565;-74
2023/05/24 04:18:54;;;;;;;11.50;7.15;;;;;;;;;;6233554;28;20312;-75
2023/05/24 04:21:59;;;;;;;10.18;6.85;;;;;;;;;;6234582;28;20304;-77
2023/05/24 04:25:06;;;;;;;12.30;7.22;;;;;;;;;;6237164;28;20292;-75
2023/05/24 04:28:14;;;;;;;8.45;6.55;;;;;;;;;;6237715;28;20532;-76
2023/05/24 04:31:20;;;;;;;11.40;6.78;;;;;;;;;;6238148;28;20300;-77
2023/05/24 04:34:28;;;;;;;7.00;6.40;;;;;;;;;;6239961;28;20305;-75
2023/05/24 04:37:34;;;;;;;10.65;6.93;;;;;;;;;;6238182;28;20264;-77
2023/05/24 04:40:39;;;;;;;9.07;6.03;;;;;;;;;;6238686;28;20300;-77
2023/05/24 04:43:44;;;;;;;10.27;6.25;;;;;;;;;;6236893;28;20300;-76
2023/05/24 04:46:49;;;;;;;7.28;5.15;;;;;;;;;;6238084;28;20295;-77
2023/05/24 04:49:56;;;;;;;5.75;5.15;;;;;;;;;;6238556;28;20292;-76
2023/05/24 04:53:02;;;;;;;7.90;5.43;;;;;;;;;;6238231;28;20288;-77
2023/05/24 04:56:07;;;;;;;10.25;5.25;;;;;;;;;;6238320;28;20292;-76
2023/05/24 04:59:14;;;;;;;12.57;5.32;;;;;;;;;;6238251;28;20296;-76
2023/05/24 05:02:20;;;;;;;9.40;5.07;;;;;;;;;;6238719;28;20304;-77
2023/05/24 05:05:27;;;;;;;7.68;5.00;;;;;;;;;;6237687;28;20511;-77
2023/05/24 05:08:33;;;;;;;6.18;5.03;;;;;;;;;;6239313;28;20245;-77
2023/05/24 05:11:39;;;;;;;9.50;4.75;;;;;;;;;;6238275;28;20296;-77
2023/05/24 05:14:44;;;;;;;9.75;4.78;;;;;;;;;;6237515;28;20292;-77
2023/05/24 05:17:49;;;;;;;12.00;5.20;;;;;;;;;;6239151;28;20293;-76
2023/05/24 05:20:57;;;;;;;5.75;5.03;;;;;;;;;;6238130;28;20292;-76
2023/05/24 05:24:02;;;;;;;18.55;5.05;;;;;;;;;;6237195;28;20486;-76
2023/05/24 05:27:07;;;;;;;9.73;4.60;;;;;;;;;;6237871;28;20495;-75
2023/05/24 05:30:13;;;;;;;13.85;4.80;;;;;;;;;;6237793;28;20292;-77
2023/05/24 05:33:18;;;;;;;14.15;4.95;;;;;;;;;;6235131;28;20607;-75
2023/05/24 05:36:25;;;;;;;10.95;4.25;;;;;;;;;;6237173;28;20300;-75
2023/05/24 05:39:30;;;;;;;16.50;4.65;;;;;;;;;;6238204;28;20580;-77
2023/05/24 05:42:36;;;;;;;4.32;3.78;;;;;;;;;;6237539;28;20296;-76
2023/05/24 05:45:41;;;;;;;5.32;3.63;;;;;;;;;;6236669;28;20478;-77
2023/05/24 05:48:46;;;;;;;7.90;3.60;;;;;;;;;;6243354;28;20479;-76
2023/05/24 05:51:53;;;;;;;7.32;3.85;;;;;;;;;;6252302;28;20296;-76
2023/05/24 05:54:59;;;;;;;10.40;4.25;;;;;;;;;;6237960;28;20300;-76
2023/05/24 05:58:04;;;;;;;11.18;3.67;;;;;;;;;;6236869;28;20292;-75
2023/05/24 06:01:12;;;;;;;5.05;3.42;;;;;;;;;;6237150;28;20293;-77
2023/05/24 06:04:18;;;;;;;5.85;3.88;;;;;;;;;;6235841;28;20365;-77
2023/05/24 06:07:24;;;;;;;6.53;3.88;;;;;;;;;;6236475;28;20284;-76
2023/05/24 06:10:30;;;;;;;5.75;3.92;;;;;;;;;;6235600;28;20286;-77
2023/05/24 06:13:35;;;;;;;9.00;4.38;;;;;;;;;;6236527;28;20492;-76
2023/05/24 06:16:42;;;;;;;15.30;4.53;;;;;;;;;;6236586;28;20573;-77
2023/05/24 06:19:47;;;;;;;12.63;4.88;;;;;;;;;;6236881;28;20304;-77
2023/05/24 06:22:55;;;;;;;18.67;4.45;;;;;;;;;;6236816;28;20437;-75
2023/05/24 06:26:01;;;;;;;11.45;4.55;;;;;;;;;;6236563;28;20293;-78
2023/05/24 06:29:07;;;;;;;17.17;4.78;;;;;;;;;;6236007;28;20384;-76
2023/05/24 06:32:12;;;;;;;8.50;4.63;;;;;;;;;;6236484;28;20300;-77
2023/05/24 06:35:18;;;;;;;11.10;5.00;;;;;;;;;;6236395;28;20312;-77
2023/05/24 06:38:24;;;;;;;8.35;4.28;;;;;;;;;;6235706;28;20384;-75
2023/05/24 06:41:30;;;;;;;19.48;4.47;;;;;;;;;;6236337;28;20309;-76
2023/05/24 06:44:35;;;;;;;19.42;4.85;;;;;;;;;;6236694;28;20300;-77
2023/05/24 06:47:40;;;;;;;13.57;5.13;;;;;;;;;;6266850;28;20296;-77
2023/05/24 06:50:46;;;;;;;7.40;4.10;;;;;;;;;;6235018;28;20288;-77
2023/05/24 06:53:53;;;;;;;16.50;4.50;;;;;;;;;;6235442;28;20301;-75
2023/05/24 06:56:58;;;;;;;14.98;5.82;;;;;;;;;;6236090;28;20296;-77
2023/05/24 07:00:08;;;;;;;21.70;4.60;;;;;;;;;;6235083;28;20300;-76
2023/05/24 07:03:14;;;;;;;29.35;5.30;;;;;;;;;;6237219;28;20284;-75
2023/05/24 07:06:20;;;;;;;25.33;5.30;;;;;;;;;;6236664;28;20296;-75
2023/05/24 07:09:27;;;;;;;15.43;4.25;;;;;;;;;;6234175;28;20300;-75
2023/05/24 07:12:33;;;;;;;17.48;4.68;;;;;;;;;;6236851;28;20284;-77
2023/05/24 07:15:38;;;;;;;13.05;3.40;;;;;;;;;;6236228;28;20300;-76
2023/05/24 07:18:43;;;;;;;14.15;3.72;;;;;;;;;;6236535;28;20588;-76
2023/05/24 07:21:49;;;;;;;6.43;3.05;;;;;;;;;;6236929;28;20300;-73
2023/05/24 07:24:56;;;;;;;6.35;3.30;;;;;;;;;;6235404;28;20304;-77
2023/05/24 07:28:01;;;;;;;7.22;3.50;;;;;;;;;;6236017;28;20288;-75
2023/05/24 07:31:08;;;;;;;3.88;3.47;;;;;;;;;;6235956;28;20296;-76
2023/05/24 07:34:14;;;;;;;6.07;3.20;;;;;;;;;;6236327;28;20300;-76
2023/05/24 07:37:19;;;;;;;7.30;3.40;;;;;;;;;;6237517;28;20507;-77
2023/05/24 07:40:26;;;;;;;3.97;3.67;;;;;;;;;;6234402;28;20304;-76
2023/05/24 07:43:31;;;;;;;3.28;2.92;;;;;;;;;;6234863;28;20292;-75
2023/05/24 07:46:36;;;;;;;4.68;3.13;;;;;;;;;;6233906;28;20292;-75
2023/05/24 07:49:42;;;;;;;3.25;3.10;;;;;;;;;;6235588;28;20365;-76
2023/05/24 07:52:47;;;;;;;10.23;3.13;;;;;;;;;;6235102;28;20288;-76
2023/05/24 07:55:53;;;;;;;4.85;3.47;;;;;;;;;;6234459;28;20292;-76
2023/05/24 07:59:03;;;;;;;5.97;3.40;;;;;;;;;;6237364;28;20291;-76
2023/05/24 08:02:10;;;;;;;11.60;3.55;;;;;;;;;;6240229;28;20301;-76
2023/05/24 08:05:16;;;;;;;7.93;3.42;;;;;;;;;;6239441;28;20300;-76
2023/05/24 08:08:22;;;;;;;8.80;2.95;;;;;;;;;;6238609;28;20296;-75
2023/05/24 08:11:28;;;;;;;4.30;3.10;;;;;;;;;;6240074;28;20349;-77
2023/05/24 08:14:34;;;;;;;9.98;3.80;;;;;;;;;;6237870;28;20296;-74
2023/05/24 08:17:40;;;;;;;11.88;3.63;;;;;;;;;;6239752;28;20288;-77
2023/05/24 08:20:45;;;;;;;7.38;3.95;;;;;;;;;;6240099;28;20296;-75
2023/05/24 08:23:51;;;;;;;3.65;3.33;;;;;;;;;;6239240;28;20296;-75
2023/05/24 08:26:58;;;;;;;3.72;3.40;;;;;;;;;;6240523;28;20479;-75
2023/05/24 08:30:03;;;;;;;4.70;3.30;;;;;;;;;;6238861;28;20300;-76
2023/05/24 08:33:11;;;;;;;6.43;3.80;;;;;;;;;;6238770;28;20597;-76
2023/05/24 08:36:17;;;;;;;12.93;3.50;;;;;;;;;;6239329;28;20287;-77
2023/05/24 08:39:22;;;;;;;5.03;3.38;;;;;;;;;;6238230;28;20311;-77
2023/05/24 08:42:29;;;;;;;5.57;3.63;;;;;;;;;;6238978;28;20305;-76
2023/05/24 08:45:38;;;;;;;3.50;3.40;;;;;;;;;;6239964;28;20300;-75
2023/05/24 08:48:46;;;;;;;3.33;3.10;;;;;;;;;;6237774;28;20296;-77
2023/05/24 08:51:53;;;;;;;10.60;3.35;;;;;;;;;;6239587;28;20293;-75
2023/05/24 08:54:59;;;;;;;5.85;3.17;;;;;;;;;;6237810;28;20296;-77
2023/05/24 08:58:06;;;;;;;11.18;3.72;;;;;;;;;;6239079;28;20292;-77
2023/05/24 09:01:13;;;;;;;7.22;3.40;;;;;;;;;;6239305;28;20300;-76
2023/05/24 09:04:19;;;;;;;6.22;3.25;;;;;;;;;;6239434;28;20308;-78
2023/05/24 09:07:24;;;;;;;5.35;2.92;;;;;;;;;;6238501;28;20297;-77
2023/05/24 09:10:30;;;;;;;4.53;2.90;;;;;;;;;;6237331;28;20288;-76
2023/05/24 09:13:57;;;;;;;6.80;3.05;;;;;;;;;;6238299;28;20425;-77
2023/05/24 09:17:03;;;;;;;4.40;2.80;;;;;;;;;;6238963;28;20293;-76
2023/05/24 09:20:10;;;;;;;8.88;3.38;;;;;;;;;;6238239;28;20301;-75
2023/05/24 09:23:17;;;;;;;5.32;3.40;;;;;;;;;;6239393;28;20284;-77
2023/05/24 09:26:23;;;;;;;4.93;3.35;;;;;;;;;;6238131;28;20427;-75
2023/05/24 09:29:30;;;;;;;3.92;3.42;;;;;;;;;;6237110;28;20300;-76
2023/05/24 09:32:35;;;;;;;8.45;2.90;;;;;;;;;;6239109;28;20297;-76
2023/05/24 09:35:43;;;;;;;5.15;3.20;;;;;;;;;;6236000;28;20292;-77
2023/05/24 09:38:48;;;;;;;6.32;3.58;;;;;;;;;;6237296;28;20300;-76
2023/05/24 09:41:56;;;;;;;2.78;2.65;;;;;;;;;;6237742;28;20584;-76
2023/05/24 09:45:05;;;;;;;4.35;3.00;;;;;;;;;;6236869;28;20604;-77
2023/05/24 09:48:16;;;;;;;5.47;3.05;;;;;;;;;;6237280;28;20312;-76
2023/05/24 09:51:22;;;;;;;3.42;2.40;;;;;;;;;;6237226;28;20319;-76
2023/05/24 09:54:28;;;;;;;7.25;2.50;;;;;;;;;;6237978;28;20340;-76
2023/05/24 09:57:33;;;;;;;3.00;2.70;;;;;;;;;;6237221;28;20296;-76
2023/05/24 10:00:41;;;;;;;5.70;3.05;;;;;;;;;;6236266;28;20296;-76
2023/05/24 10:03:54;;;;;;;11.77;3.22;;;;;;;;;;6237377;28;20317;-74
2023/05/24 10:06:59;;;;;;;11.25;3.55;;;;;;;;;;6236970;28;20321;-77
2023/05/24 10:10:06;;;;;;;3.83;3.05;;;;;;;;;;6237205;28;20300;-76
2023/05/24 10:13:14;;;;;;;5.78;2.60;;;;;;;;;;6236856;28;20288;-77
2023/05/24 10:16:22;;;;;;;3.53;2.95;;;;;;;;;;6238128;28;20297;-75
2023/05/24 10:19:28;;;;;;;7.40;2.80;;;;;;;;;;6233622;28;20312;-78
2023/05/24 10:22:34;;;;;;;7.68;2.53;;;;;;;;;;6236974;28;20269;-76
2023/05/24 10:25:47;;;;;;;3.53;2.70;;;;;;;;;;6239951;28;20288;-78
2023/05/24 10:28:55;;;;;;;4.50;2.58;;;;;;;;;;6239687;28;20304;-76
2023/05/24 10:32:03;;;;;;;2.97;2.70;;;;;;;;;;6239538;28;20325;-76
2023/05/24 10:35:11;;;;;;;8.38;3.28;;;;;;;;;;6236312;28;20321;-75
2023/05/24 10:38:16;;;;;;;5.30;3.25;;;;;;;;;;6236115;28;20297;-75
2023/05/24 10:41:21;;;;;;;9.43;3.35;;;;;;;;;;6236288;28;20319;-75
2023/05/24 10:44:30;;;;;;;8.57;3.60;;;;;;;;;;6236341;28;20296;-75
2023/05/24 10:47:38;;;;;;;8.50;2.88;;;;;;;;;;6235705;28;20300;-76
2023/05/24 10:50:44;;;;;;;5.13;3.10;;;;;;;;;;6235624;28;20296;-76
2023/05/24 10:53:50;;;;;;;14.43;3.05;;;;;;;;;;6234394;28;20288;-76
2023/05/24 10:56:57;;;;;;;4.82;3.15;;;;;;;;;;6234824;28;20300;-75
2023/05/24 11:00:27;;;;;;;8.52;2.70;;;;;;;;;;6235624;28;20296;-76
2023/05/24 11:03:38;;;;;;;10.98;3.88;;;;;;;;;;6234744;28;20288;-77
2023/05/24 11:06:48;;;;;;;13.82;3.08;;;;;;;;;;6235316;28;20484;-75
2023/05/24 11:10:01;;;;;;;8.57;3.30;;;;;;;;;;6235747;28;20297;-76
2023/05/24 11:13:08;;;;;;;3.47;3.10;;;;;;;;;;6235128;28;20293;-76
2023/05/24 11:16:33;;;;;;;4.05;2.92;;;;;;;;;;6235830;28;20288;-76
2023/05/24 11:19:47;;;;;;;8.55;3.15;;;;;;;;;;6233970;28;20301;-76
2023/05/24 11:22:53;;;;;;;7.57;3.42;;;;;;;;;;6233415;28;20545;-77
2023/05/24 11:25:58;;;;;;;6.78;3.22;;;;;;;;;;6235208;28;20292;-74
2023/05/24 11:29:05;;;;;;;5.93;2.75;;;;;;;;;;6234132;28;20307;-74
2023/05/24 11:32:15;;;;;;;8.25;3.05;;;;;;;;;;6235398;28;20292;-77
2023/05/24 11:35:26;;;;;;;9.75;3.03;;;;;;;;;;6234333;28;20308;-75
2023/05/24 11:38:33;;;;;;;3.40;3.10;;;;;;;;;;6235013;28;20469;-76
2023/05/24 11:41:39;;;;;;;4.05;3.05;;;;;;;;;;6235166;28;20307;-75
2023/05/24 11:44:44;;;;;;;6.53;3.60;;;;;;;;;;6234525;28;20296;-76
2023/05/24 11:47:49;;;;;;;9.45;3.28;;;;;;;;;;6234206;28;20301;-77
2023/05/24 11:50:56;;;;;;;6.00;3.10;;;;;;;;;;6235332;28;20301;-76
2023/05/24 11:54:02;;;;;;;12.93;3.17;;;;;;;;;;6244719;28;20602;-76
2023/05/24 11:57:08;;;;;;;10.75;3.00;;;;;;;;;;6246303;28;20376;-76
2023/05/24 12:00:17;;;;;;;6.00;2.90;;;;;;;;;;6232457;28;20497;-75
2023/05/24 12:03:23;;;;;;;15.02;2.70;;;;;;;;;;6233826;28;20609;-76
2023/05/24 12:06:40;;;;;;;6.53;2.70;;;;;;;;;;6235243;28;20300;-76
2023/05/24 12:09:45;;;;;;;4.55;2.83;;;;;;;;;;6235885;28;20289;-77
2023/05/24 12:12:50;;;;;;;8.65;3.10;;;;;;;;;;6234356;28;20312;-75
2023/05/24 12:15:56;;;;;;;6.00;2.70;;;;;;;;;;6233304;28;20292;-76
2023/05/24 12:19:02;;;;;;;3.80;2.85;;;;;;;;;;6234269;28;20296;-76
2023/05/24 12:22:17;;;;;;;11.60;2.78;;;;;;;;;;6234982;28;20292;-76
2023/05/24 12:25:25;;;;;;;3.13;2.85;;;;;;;;;;6235777;28;20292;-76
2023/05/24 12:28:35;;;;;;;2.67;2.67;;;;;;;;;;6232740;28;20292;-76
2023/05/24 12:31:41;;;;;;;9.68;3.47;;;;;;;;;;6234614;28;20277;-76
2023/05/24 12:34:49;;;;;;;7.53;2.78;;;;;;;;;;6233879;28;20541;-75
2023/05/24 12:38:00;;;;;;;9.05;3.30;;;;;;;;;;6234538;28;20288;-75
2023/05/24 12:41:06;;;;;;;3.42;2.80;;;;;;;;;;6234876;28;20293;-76
2023/05/24 12:44:18;;;;;;;6.35;3.30;;;;;;;;;;6237088;28;20453;-76
2023/05/24 12:47:23;;;;;;;3.45;2.78;;;;;;;;;;6243203;28;20316;-76
2023/05/24 12:50:29;;;;;;;5.68;2.95;;;;;;;;;;6260655;28;20299;-77
2023/05/24 12:53:35;;;;;;;3.38;2.80;;;;;;;;;;6238726;28;20598;-76
2023/05/24 12:56:42;;;;;;;3.00;2.80;;;;;;;;;;6237262;28;20296;-76
2023/05/24 12:59:47;;;;;;;3.97;2.90;;;;;;;;;;6238929;28;20304;-76
2023/05/24 13:02:55;;;;;;;4.18;2.80;;;;;;;;;;6237931;28;20288;-75
2023/05/24 13:06:00;;;;;;;3.00;2.85;;;;;;;;;;6238129;28;20292;-75
2023/05/24 13:09:06;;;;;;;10.88;3.20;;;;;;;;;;6238483;28;20546;-77
2023/05/24 13:12:12;;;;;;;3.13;2.70;;;;;;;;;;6238289;28;20563;-76
2023/05/24 13:15:18;;;;;;;10.38;3.05;;;;;;;;;;6236711;28;20500;-76
2023/05/24 13:18:25;;;;;;;4.53;2.78;;;;;;;;;;6238056;28;20292;-76
2023/05/24 13:21:30;;;;;;;4.55;2.88;;;;;;;;;;6237859;28;20292;-77
2023/05/24 13:24:37;;;;;;;8.38;3.58;;;;;;;;;;6237556;28;20303;-76
2023/05/24 13:27:43;;;;;;;6.22;3.28;;;;;;;;;;6237908;28;20292;-77
2023/05/24 13:30:48;;;;;;;14.38;3.67;;;;;;;;;;6237231;28;20545;-75
2023/05/24 13:33:53;;;;;;;7.38;3.40;;;;;;;;;;6236891;28;20296;-76
2023/05/24 13:36:59;;;;;;;5.80;3.70;;;;;;;;;;6236450;28;20288;-77
2023/05/24 13:40:07;;;;;;;5.65;3.20;;;;;;;;;;6237011;28;20304;-76
2023/05/24 13:43:12;;;;;;;5.43;3.67;;;;;;;;;;6237703;28;20332;-75
2023/05/24 13:46:17;;;;;;;4.18;3.30;;;;;;;;;;6237251;28;20293;-75
2023/05/24 13:49:23;;;;;;;3.60;3.10;;;;;;;;;;6236256;28;20312;-75
2023/05/24 13:52:29;;;;;;;4.53;3.03;;;;;;;;;;6235779;28;20356;-74
2023/05/24 13:55:37;;;;;;;11.20;3.40;;;;;;;;;;6237067;28;20462;-75
2023/05/24 13:58:43;;;;;;;3.13;2.95;;;;;;;;;;6235774;28;20469;-74
2023/05/24 14:01:49;;;;;;;3.35;3.15;;;;;;;;;;6236796;28;20629;-75
2023/05/24 14:04:54;;;;;;;4.32;3.80;;;;;;;;;;6236664;28;20300;-76
2023/05/24 14:08:17;;;;;;;5.55;3.33;;;;;;;;;;6238941;28;20296;-76
2023/05/24 14:11:25;;;;;;;18.52;3.67;;;;;;;;;;6236838;28;20490;-75
2023/05/24 14:14:30;;;;;;;9.57;3.50;;;;;;;;;;6236943;28;20300;-75
2023/05/24 14:17:38;;;;;;;3.58;3.38;;;;;;;;;;6237092;28;20304;-75
2023/05/24 14:20:43;;;;;;;7.63;3.60;;;;;;;;;;6236952;28;20297;-76
2023/05/24 14:23:49;;;;;;;7.72;2.90;;;;;;;;;;6236489;28;20469;-75
2023/05/24 14:26:56;;;;;;;5.72;3.30;;;;;;;;;;6235815;28;20288;-75
2023/05/24 14:30:02;;;;;;;5.28;3.60;;;;;;;;;;6236710;28;20296;-75
2023/05/24 14:33:10;;;;;;;4.40;3.75;;;;;;;;;;6236100;28;20296;-76
2023/05/24 14:36:15;;;;;;;4.10;3.30;;;;;;;;;;6235276;28;20580;-74
2023/05/24 14:39:21;;;;;;;10.55;3.53;;;;;;;;;;6235500;28;20307;-77
2023/05/24 14:42:27;;;;;;;4.68;3.13;;;;;;;;;;6236680;28;20383;-76
2023/05/24 14:45:32;;;;;;;6.60;3.58;;;;;;;;;;6236137;28;20289;-74
2023/05/24 14:48:40;;;;;;;10.15;3.97;;;;;;;;;;6234936;28;20312;-76
2023/05/24 14:51:47;;;;;;;5.15;3.50;;;;;;;;;;6236057;28;20288;-75
2023/05/24 14:54:52;;;;;;;7.20;3.60;;;;;;;;;;6236402;28;20407;-75
2023/05/24 14:57:58;;;;;;;7.90;3.58;;;;;;;;;;6234191;28;20288;-76
2023/05/24 15:01:05;;;;;;;5.80;3.67;;;;;;;;;;6235520;28;20289;-76
2023/05/24 15:04:12;;;;;;;7.93;3.60;;;;;;;;;;6234790;28;20312;-75
2023/05/24 15:07:17;;;;;;;14.52;3.50;;;;;;;;;;6266997;28;20288;-74
2023/05/24 15:10:22;;;;;;;10.77;3.95;;;;;;;;;;6235037;28;20454;-74
2023/05/24 15:13:29;;;;;;;9.38;3.67;;;;;;;;;;6233328;28;20301;-76
2023/05/24 15:16:35;;;;;;;10.00;3.70;;;;;;;;;;6235496;28;20265;-76
2023/05/24 15:19:40;;;;;;;7.20;3.78;;;;;;;;;;6233428;28;20296;-76
2023/05/24 15:22:45;;;;;;;6.22;3.50;;;;;;;;;;6234357;28;20292;-76
2023/05/24 15:25:51;;;;;;;15.13;4.10;;;;;;;;;;6234558;28;20288;-75
2023/05/24 15:28:59;;;;;;;10.95;3.53;;;;;;;;;;6235272;28;20300;-76
2023/05/24 15:32:05;;;;;;;8.85;3.60;;;;;;;;;;6235796;28;20292;-74
2023/05/24 15:35:11;;;;;;;14.35;3.42;;;;;;;;;;6234676;28;20296;-75
2023/05/24 15:38:17;;;;;;;5.22;3.55;;;;;;;;;;6234812;28;20292;-75
2023/05/24 15:41:22;;;;;;;7.53;3.05;;;;;;;;;;6234770;28;20344;-75
2023/05/24 15:44:29;;;;;;;6.95;3.55;;;;;;;;;;6234016;28;20346;-75
2023/05/24 15:47:38;;;;;;;11.95;3.20;;;;;;;;;;6234598;28;20296;-76
2023/05/24 15:50:44;;;;;;;11.10;4.03;;;;;;;;;;6234637;28;20300;-76
2023/05/24 15:54:11;;;;;;;7.93;4.35;;;;;;;;;;6234731;28;20285;-75
2023/05/24 15:57:16;;;;;;;10.75;3.83;;;;;;;;;;6234027;28;20295;-75
2023/05/24 16:00:22;;;;;;;7.80;3.10;;;;;;;;;;6234288;28;20301;-74
2023/05/24 16:03:27;;;;;;;4.22;3.42;;;;;;;;;;6234171;28;20632;-74
2023/05/24 16:06:33;;;;;;;9.10;3.42;;;;;;;;;;6235574;28;20288;-73
2023/05/24 16:09:38;;;;;;;12.10;3.40;;;;;;;;;;6234883;28;20372;-75
2023/05/24 16:12:43;;;;;;;3.63;3.10;;;;;;;;;;6238348;28;20289;-74
2023/05/24 16:15:50;;;;;;;10.57;3.35;;;;;;;;;;6238926;28;20304;-75
2023/05/24 16:18:56;;;;;;;13.52;3.20;;;;;;;;;;6236730;28;20296;-75
2023/05/24 16:22:01;;;;;;;7.03;3.45;;;;;;;;;;6242602;28;20479;-74
2023/05/24 16:25:07;;;;;;;8.57;3.55;;;;;;;;;;6241463;28;20292;-75
2023/05/24 16:28:13;;;;;;;9.82;3.60;;;;;;;;;;6241899;28;20295;-76
2023/05/24 16:31:20;;;;;;;9.95;3.60;;;;;;;;;;6240247;28;20291;-69
2023/05/24 16:34:26;;;;;;;12.90;3.80;;;;;;;;;;6238565;28;20498;-72
2023/05/24 16:37:31;;;;;;;9.20;3.50;;;;;;;;;;6241896;28;20268;-68
2023/05/24 16:40:36;;;;;;;6.82;3.67;;;;;;;;;;6240011;28;20300;-70
2023/05/24 16:43:41;;;;;;;9.90;3.05;;;;;;;;;;6240590;28;20301;-70
2023/05/24 16:46:48;;;;;;;3.72;2.80;;;;;;;;;;6239516;28;20296;-70
2023/05/24 16:49:53;;;;;;;11.43;3.42;;;;;;;;;;6237715;28;20308;-70
2023/05/24 16:52:58;;;;;;;8.43;3.00;;;;;;;;;;6238013;28;20292;-70
2023/05/24 16:56:04;;;;;;;6.50;3.47;;;;;;;;;;6239123;28;20296;-69
2023/05/24 16:59:09;;;;;;;12.98;4.30;;;;;;;;;;6237328;28;20296;-70
2023/05/24 17:02:16;;;;;;;7.85;3.20;;;;;;;;;;6238656;28;20300;-71
2023/05/24 17:05:22;;;;;;;17.77;4.10;;;;;;;;;;6237342;28;20325;-71
2023/05/24 17:08:27;;;;;;;14.55;3.92;;;;;;;;;;6237601;28;20292;-71
2023/05/24 17:11:32;;;;;;;15.45;3.60;;;;;;;;;;6238607;28;20291;-70
2023/05/24 17:14:38;;;;;;;19.35;3.65;;;;;;;;;;6238844;28;20300;-71
2023/05/24 17:17:44;;;;;;;6.70;3.63;;;;;;;;;;6238862;28;20296;-70
2023/05/24 17:20:50;;;;;;;11.73;3.67;;;;;;;;;;6237206;28;20305;-71
2023/05/24 17:23:55;;;;;;;30.58;4.75;;;;;;;;;;6237984;28;20287;-73
2023/05/24 17:27:02;;;;;;;20.83;3.90;;;;;;;;;;6238235;28;20308;-71
2023/05/24 17:30:10;;;;;;;3.85;3.30;;;;;;;;;;6237975;28;20584;-71
2023/05/24 17:33:16;;;;;;;10.55;3.97;;;;;;;;;;6237327;28;20288;-71
2023/05/24 17:36:22;;;;;;;16.42;3.75;;;;;;;;;;6238699;28;20296;-69
2023/05/24 17:39:27;;;;;;;6.10;3.70;;;;;;;;;;6237637;28;20303;-70
2023/05/24 17:42:32;;;;;;;3.60;3.30;;;;;;;;;;6237656;28;20669;-71
2023/05/24 17:45:38;;;;;;;13.27;3.63;;;;;;;;;;6236986;28;20288;-70
2023/05/24 17:48:46;;;;;;;4.95;3.58;;;;;;;;;;6236745;28;20601;-71
2023/05/24 17:51:51;;;;;;;6.88;3.50;;;;;;;;;;6237654;28;20498;-72
2023/05/24 17:54:57;;;;;;;10.05;3.55;;;;;;;;;;6236340;28;20474;-71
2023/05/24 17:58:02;;;;;;;3.75;3.22;;;;;;;;;;6237930;28;20380;-70
2023/05/24 18:01:09;;;;;;;7.88;3.00;;;;;;;;;;6238509;28;20284;-71
2023/05/24 18:04:16;;;;;;;7.35;3.42;;;;;;;;;;6237894;28;20473;-70
2023/05/24 18:07:22;;;;;;;8.68;4.05;;;;;;;;;;6237760;28;20392;-70
2023/05/24 18:10:27;;;;;;;8.23;3.70;;;;;;;;;;6235753;28;20296;-71
2023/05/24 18:13:32;;;;;;;13.15;3.25;;;;;;;;;;6236097;28;20288;-71
2023/05/24 18:16:38;;;;;;;7.93;3.10;;;;;;;;;;6237017;28;20276;-70
2023/05/24 18:19:45;;;;;;;3.40;3.00;;;;;;;;;;6237165;28;20301;-71
2023/05/24 18:22:50;;;;;;;7.63;3.20;;;;;;;;;;6236572;28;20581;-70
2023/05/24 18:25:55;;;;;;;6.85;2.88;;;;;;;;;;6235808;28;20308;-71
2023/05/24 18:29:05;;;;;;;8.77;2.92;;;;;;;;;;6237070;28;20332;-71
2023/05/24 18:32:11;;;;;;;7.78;3.13;;;;;;;;;;6236853;28;20316;-71